KNUQ/NUQ METAR and TAF weather

Enter ICAO airport designator
Station Type Date Time Source
KNUQ METAR 2019/08/22 15:56 UTC NOAA

KNUQ 221556Z 35005KT 10SM OVC008 21/18 A2983 RMK AO2 SLP105 T02110178


Station Type Date Time Source
KNUQ Decoded METAR 2019/08/22 15:56 UTC NOAA

Station name not available
Aug 22, 2019 - 11:56 AM EDT / 2019.08.22 1556 UTC
Wind: from the N (350 degrees) at 6 MPH (5 KT):0
Visibility: 10 mile(s):0
Sky conditions: overcast
Temperature: 70.0 F (21.1 C)
Dew Point: 64.0 F (17.8 C)
Relative Humidity: 81%
Pressure (altimeter): 29.83 in. Hg (1010 hPa)
ob: KNUQ 221556Z 35005KT 10SM OVC008 21/18 A2983 RMK AO2 SLP105 T02110178
cycle: 16

Station Type Date Time Source
KNUQ TAF 2018/01/28 15:27 UTC NOAA

TAF COR KNUQ 2815/2915 14012G22KT 9999 SCT020 BKN035 BKN050 BKN120 650509 651406 540009 540909 QNH3017INS
TEMPO 2816/2822 14018G30KT 8000 -SHRA BKN015 OVC030
FM282200 14020G32KT 9999 SCT020 BKN050 BKN120 650509 651406 540009 540909 QNH3009INS
TEMPO 2909/2915 8000 -SHRA BKN015 OVC040 T08/2915Z T12/2922Z COR 1523 FS30085

Example: see airport list